sensor_id;sensor_type;location;lat;lon;timestamp;pressure;altitude;pressure_sealevel;temperature;humidity
85319;BME280;75722;49.004;12.120;2024-02-04T00:00:07;98634.13;;;6.37;73.65
85319;BME280;75722;49.004;12.120;2024-02-04T00:02:32;98638.69;;;6.37;73.79
85319;BME280;75722;49.004;12.120;2024-02-04T00:04:58;98637.09;;;6.34;73.65
85319;BME280;75722;49.004;12.120;2024-02-04T00:07:23;98642.25;;;6.27;74.01
85319;BME280;75722;49.004;12.120;2024-02-04T00:09:49;98633.16;;;6.28;74.28
85319;BME280;75722;49.004;12.120;2024-02-04T00:12:16;98635.03;;;6.28;74.65
85319;BME280;75722;49.004;12.120;2024-02-04T00:14:41;98620.72;;;6.27;74.80
85319;BME280;75722;49.004;12.120;2024-02-04T00:17:07;98609.44;;;6.24;74.70
85319;BME280;75722;49.004;12.120;2024-02-04T00:19:32;98602.78;;;6.18;75.29
85319;BME280;75722;49.004;12.120;2024-02-04T00:21:57;98597.66;;;6.25;75.21
85319;BME280;75722;49.004;12.120;2024-02-04T00:24:23;98594.97;;;6.25;75.06
85319;BME280;75722;49.004;12.120;2024-02-04T00:26:48;98602.94;;;6.16;75.27
85319;BME280;75722;49.004;12.120;2024-02-04T00:29:14;98611.31;;;6.13;75.66
85319;BME280;75722;49.004;12.120;2024-02-04T00:31:39;98601.94;;;6.18;75.33
85319;BME280;75722;49.004;12.120;2024-02-04T00:34:04;98600.94;;;6.19;75.14
85319;BME280;75722;49.004;12.120;2024-02-04T00:36:30;98592.34;;;6.15;75.23
85319;BME280;75722;49.004;12.120;2024-02-04T00:38:56;98601.53;;;6.12;75.54
85319;BME280;75722;49.004;12.120;2024-02-04T00:41:21;98590.94;;;6.11;75.70
85319;BME280;75722;49.004;12.120;2024-02-04T00:43:46;98584.94;;;6.17;75.42
85319;BME280;75722;49.004;12.120;2024-02-04T00:46:12;98596.69;;;6.16;75.40
85319;BME280;75722;49.004;12.120;2024-02-04T00:48:37;98595.88;;;6.15;75.33
85319;BME280;75722;49.004;12.120;2024-02-04T00:51:03;98597.41;;;6.18;75.06
85319;BME280;75722;49.004;12.120;2024-02-04T00:53:29;98585.66;;;6.19;75.02
85319;BME280;75722;49.004;12.120;2024-02-04T00:56:00;98579.56;;;6.17;74.97
85319;BME280;75722;49.004;12.120;2024-02-04T00:58:25;98580.44;;;6.18;74.83
85319;BME280;75722;49.004;12.120;2024-02-04T01:00:51;98589.44;;;6.26;74.49
85319;BME280;75722;49.004;12.120;2024-02-04T01:03:16;98595.25;;;6.22;74.75
85319;BME280;75722;49.004;12.120;2024-02-04T01:05:41;98592.56;;;6.22;74.60
85319;BME280;75722;49.004;12.120;2024-02-04T01:08:07;98593.00;;;6.27;74.38
85319;BME280;75722;49.004;12.120;2024-02-04T01:10:32;98597.91;;;6.32;74.18
85319;BME280;75722;49.004;12.120;2024-02-04T01:12:57;98595.38;;;6.30;73.77
85319;BME280;75722;49.004;12.120;2024-02-04T01:15:23;98591.69;;;6.31;73.65
85319;BME280;75722;49.004;12.120;2024-02-04T01:17:48;98603.72;;;6.37;73.26
85319;BME280;75722;49.004;12.120;2024-02-04T01:20:13;98601.56;;;6.40;73.20
85319;BME280;75722;49.004;12.120;2024-02-04T01:22:39;98597.84;;;6.41;72.93
85319;BME280;75722;49.004;12.120;2024-02-04T01:25:05;98591.50;;;6.43;73.00
85319;BME280;75722;49.004;12.120;2024-02-04T01:27:31;98594.88;;;6.45;72.70
85319;BME280;75722;49.004;12.120;2024-02-04T01:29:56;98600.09;;;6.46;72.68
85319;BME280;75722;49.004;12.120;2024-02-04T01:32:22;98599.53;;;6.52;72.74
85319;BME280;75722;49.004;12.120;2024-02-04T01:34:47;98605.50;;;6.46;72.21
85319;BME280;75722;49.004;12.120;2024-02-04T01:37:12;98609.72;;;6.49;72.54
85319;BME280;75722;49.004;12.120;2024-02-04T01:39:38;98591.53;;;6.61;71.69
85319;BME280;75722;49.004;12.120;2024-02-04T01:42:03;98594.09;;;6.62;71.83
85319;BME280;75722;49.004;12.120;2024-02-04T01:44:29;98594.38;;;6.59;71.46
85319;BME280;75722;49.004;12.120;2024-02-04T01:46:54;98594.47;;;6.67;71.19
85319;BME280;75722;49.004;12.120;2024-02-04T01:49:20;98588.94;;;6.69;71.09
85319;BME280;75722;49.004;12.120;2024-02-04T01:51:45;98594.75;;;6.64;71.12
85319;BME280;75722;49.004;12.120;2024-02-04T01:54:11;98587.00;;;6.61;71.70
85319;BME280;75722;49.004;12.120;2024-02-04T01:56:36;98596.47;;;6.65;71.14
85319;BME280;75722;49.004;12.120;2024-02-04T01:59:02;98588.06;;;6.68;71.15
85319;BME280;75722;49.004;12.120;2024-02-04T02:01:27;98576.03;;;6.73;70.86
85319;BME280;75722;49.004;12.120;2024-02-04T02:03:53;98582.09;;;6.75;70.68
85319;BME280;75722;49.004;12.120;2024-02-04T02:06:18;98583.94;;;6.74;70.75
85319;BME280;75722;49.004;12.120;2024-02-04T02:08:44;98570.25;;;6.67;70.95
85319;BME280;75722;49.004;12.120;2024-02-04T02:11:24;98558.56;;;6.77;70.79
85319;BME280;75722;49.004;12.120;2024-02-04T02:13:57;98549.78;;;6.75;70.52
85319;BME280;75722;49.004;12.120;2024-02-04T02:16:30;98555.97;;;6.67;71.18
85319;BME280;75722;49.004;12.120;2024-02-04T02:19:12;98548.72;;;6.67;71.35
85319;BME280;75722;49.004;12.120;2024-02-04T02:26:50;98551.03;;;6.62;72.07
85319;BME280;75722;49.004;12.120;2024-02-04T02:29:16;98557.78;;;6.66;71.82
85319;BME280;75722;49.004;12.120;2024-02-04T02:31:42;98556.09;;;6.65;72.04
85319;BME280;75722;49.004;12.120;2024-02-04T02:34:08;98552.03;;;6.61;72.24
85319;BME280;75722;49.004;12.120;2024-02-04T02:37:01;98552.84;;;6.62;72.50
85319;BME280;75722;49.004;12.120;2024-02-04T02:39:28;98549.94;;;6.55;72.46
85319;BME280;75722;49.004;12.120;2024-02-04T02:41:59;98561.44;;;6.47;73.30
85319;BME280;75722;49.004;12.120;2024-02-04T02:44:28;98563.31;;;6.47;73.29
85319;BME280;75722;49.004;12.120;2024-02-04T02:46:57;98565.47;;;6.61;72.83
85319;BME280;75722;49.004;12.120;2024-02-04T02:49:23;98567.63;;;6.58;72.62
85319;BME280;75722;49.004;12.120;2024-02-04T02:51:49;98566.28;;;6.44;73.46
85319;BME280;75722;49.004;12.120;2024-02-04T02:54:14;98560.75;;;6.45;73.45
85319;BME280;75722;49.004;12.120;2024-02-04T02:56:39;98563.59;;;6.44;73.21
85319;BME280;75722;49.004;12.120;2024-02-04T02:59:05;98570.31;;;6.58;72.71
85319;BME280;75722;49.004;12.120;2024-02-04T03:01:31;98573.59;;;6.51;72.99
85319;BME280;75722;49.004;12.120;2024-02-04T03:03:56;98580.28;;;6.47;73.11
85319;BME280;75722;49.004;12.120;2024-02-04T03:06:21;98571.38;;;6.47;73.13
85319;BME280;75722;49.004;12.120;2024-02-04T03:08:47;98566.97;;;6.46;73.54
85319;BME280;75722;49.004;12.120;2024-02-04T03:11:12;98570.06;;;6.51;73.11
85319;BME280;75722;49.004;12.120;2024-02-04T03:13:40;98571.75;;;6.52;73.02
85319;BME280;75722;49.004;12.120;2024-02-04T03:16:12;98576.47;;;6.50;72.77
85319;BME280;75722;49.004;12.120;2024-02-04T03:18:41;98588.19;;;6.49;73.38
85319;BME280;75722;49.004;12.120;2024-02-04T03:21:16;98591.34;;;6.44;73.59
85319;BME280;75722;49.004;12.120;2024-02-04T03:23:43;98588.50;;;6.46;73.40
85319;BME280;75722;49.004;12.120;2024-02-04T03:26:10;98603.66;;;6.47;73.47
85319;BME280;75722;49.004;12.120;2024-02-04T03:28:36;98601.25;;;6.44;73.67
85319;BME280;75722;49.004;12.120;2024-02-04T03:31:01;98598.56;;;6.44;73.27
85319;BME280;75722;49.004;12.120;2024-02-04T03:33:27;98596.75;;;6.44;73.43
85319;BME280;75722;49.004;12.120;2024-02-04T03:35:52;98596.41;;;6.47;73.27
85319;BME280;75722;49.004;12.120;2024-02-04T03:38:17;98583.47;;;6.61;72.87
85319;BME280;75722;49.004;12.120;2024-02-04T03:40:43;98593.84;;;6.56;73.14
85319;BME280;75722;49.004;12.120;2024-02-04T03:43:08;98594.19;;;6.43;73.58
85319;BME280;75722;49.004;12.120;2024-02-04T03:45:35;98596.56;;;6.46;73.54
85319;BME280;75722;49.004;12.120;2024-02-04T03:48:01;98592.75;;;6.48;73.99
85319;BME280;75722;49.004;12.120;2024-02-04T03:50:26;98590.22;;;6.47;73.53
85319;BME280;75722;49.004;12.120;2024-02-04T03:52:51;98591.59;;;6.51;73.17
85319;BME280;75722;49.004;12.120;2024-02-04T03:55:18;98595.03;;;6.43;73.92
85319;BME280;75722;49.004;12.120;2024-02-04T03:57:43;98586.41;;;6.39;73.77
85319;BME280;75722;49.004;12.120;2024-02-04T04:00:09;98580.59;;;6.44;73.80
85319;BME280;75722;49.004;12.120;2024-02-04T04:02:35;98575.50;;;6.41;73.94
85319;BME280;75722;49.004;12.120;2024-02-04T04:05:00;98571.44;;;6.37;74.06
85319;BME280;75722;49.004;12.120;2024-02-04T04:07:25;98572.97;;;6.39;74.29
85319;BME280;75722;49.004;12.120;2024-02-04T04:09:50;98562.06;;;6.41;73.99
85319;BME280;75722;49.004;12.120;2024-02-04T04:12:16;98569.66;;;6.46;73.68
85319;BME280;75722;49.004;12.120;2024-02-04T04:14:41;98572.25;;;6.37;73.84
85319;BME280;75722;49.004;12.120;2024-02-04T04:17:07;98578.19;;;6.41;73.81
85319;BME280;75722;49.004;12.120;2024-02-04T04:19:32;98582.72;;;6.40;73.87
85319;BME280;75722;49.004;12.120;2024-02-04T04:22:01;98582.03;;;6.38;74.12
85319;BME280;75722;49.004;12.120;2024-02-04T04:24:27;98578.88;;;6.43;74.08
85319;BME280;75722;49.004;12.120;2024-02-04T04:26:52;98569.56;;;6.37;74.10
85319;BME280;75722;49.004;12.120;2024-02-04T04:29:18;98580.03;;;6.40;74.13
85319;BME280;75722;49.004;12.120;2024-02-04T04:31:43;98567.16;;;6.34;74.28
85319;BME280;75722;49.004;12.120;2024-02-04T04:34:08;98567.16;;;6.34;74.17
85319;BME280;75722;49.004;12.120;2024-02-04T04:36:34;98564.47;;;6.34;74.25
85319;BME280;75722;49.004;12.120;2024-02-04T04:38:59;98571.56;;;6.35;74.44
85319;BME280;75722;49.004;12.120;2024-02-04T04:41:25;98569.13;;;6.42;73.96
85319;BME280;75722;49.004;12.120;2024-02-04T04:43:50;98566.13;;;6.45;73.70
85319;BME280;75722;49.004;12.120;2024-02-04T04:46:15;98569.13;;;6.42;74.07
85319;BME280;75722;49.004;12.120;2024-02-04T04:48:41;98555.81;;;6.40;73.58
85319;BME280;75722;49.004;12.120;2024-02-04T04:51:11;98549.44;;;6.41;73.93
85319;BME280;75722;49.004;12.120;2024-02-04T04:53:37;98540.25;;;6.44;74.16
85319;BME280;75722;49.004;12.120;2024-02-04T04:56:02;98549.00;;;6.46;73.40
85319;BME280;75722;49.004;12.120;2024-02-04T04:58:28;98556.06;;;6.47;73.71
85319;BME280;75722;49.004;12.120;2024-02-04T05:00:53;98554.53;;;6.45;74.06
85319;BME280;75722;49.004;12.120;2024-02-04T05:03:18;98561.28;;;6.49;73.56
85319;BME280;75722;49.004;12.120;2024-02-04T05:05:44;98566.81;;;6.47;73.57
85319;BME280;75722;49.004;12.120;2024-02-04T05:08:10;98562.59;;;6.45;73.72
85319;BME280;75722;49.004;12.120;2024-02-04T05:10:35;98557.06;;;6.46;74.08
85319;BME280;75722;49.004;12.120;2024-02-04T05:13:00;98563.31;;;6.47;73.96
85319;BME280;75722;49.004;12.120;2024-02-04T05:15:26;98562.44;;;6.46;73.90
85319;BME280;75722;49.004;12.120;2024-02-04T05:17:51;98566.28;;;6.44;74.09
85319;BME280;75722;49.004;12.120;2024-02-04T05:20:16;98561.19;;;6.40;74.35
85319;BME280;75722;49.004;12.120;2024-02-04T05:22:42;98567.28;;;6.43;74.19
85319;BME280;75722;49.004;12.120;2024-02-04T05:25:07;98550.16;;;6.44;73.98
85319;BME280;75722;49.004;12.120;2024-02-04T05:27:34;98551.97;;;6.43;74.08
85319;BME280;75722;49.004;12.120;2024-02-04T05:29:59;98550.59;;;6.39;74.47
85319;BME280;75722;49.004;12.120;2024-02-04T05:32:24;98562.06;;;6.41;74.07
85319;BME280;75722;49.004;12.120;2024-02-04T05:34:50;98561.78;;;6.34;74.73
85319;BME280;75722;49.004;12.120;2024-02-04T05:37:15;98554.72;;;6.33;74.89
85319;BME280;75722;49.004;12.120;2024-02-04T05:39:41;98556.16;;;6.27;74.72
85319;BME280;75722;49.004;12.120;2024-02-04T05:42:06;98559.16;;;6.24;74.95
85319;BME280;75722;49.004;12.120;2024-02-04T05:44:31;98563.41;;;6.27;75.08
85319;BME280;75722;49.004;12.120;2024-02-04T05:46:57;98558.91;;;6.18;75.02
85319;BME280;75722;49.004;12.120;2024-02-04T05:49:22;98563.00;;;6.22;74.95
85319;BME280;75722;49.004;12.120;2024-02-04T05:51:47;98560.00;;;6.25;74.87
85319;BME280;75722;49.004;12.120;2024-02-04T05:54:13;98561.56;;;6.27;74.73
85319;BME280;75722;49.004;12.120;2024-02-04T05:56:38;98564.53;;;6.24;74.57
85319;BME280;75722;49.004;12.120;2024-02-04T05:59:03;98560.31;;;6.22;74.62
85319;BME280;75722;49.004;12.120;2024-02-04T06:01:29;98560.44;;;6.20;74.51
85319;BME280;75722;49.004;12.120;2024-02-04T06:03:54;98558.91;;;6.18;74.40
85319;BME280;75722;49.004;12.120;2024-02-04T06:06:19;98559.91;;;6.16;74.82
85319;BME280;75722;49.004;12.120;2024-02-04T06:08:48;98561.59;;;6.18;74.60
85319;BME280;75722;49.004;12.120;2024-02-04T06:11:14;98564.88;;;6.11;74.87
85319;BME280;75722;49.004;12.120;2024-02-04T06:13:40;98565.06;;;6.10;75.12
85319;BME280;75722;49.004;12.120;2024-02-04T06:16:06;98558.97;;;6.08;75.31
85319;BME280;75722;49.004;12.120;2024-02-04T06:18:31;98567.88;;;6.08;75.41
85319;BME280;75722;49.004;12.120;2024-02-04T06:20:57;98571.72;;;6.06;75.46
85319;BME280;75722;49.004;12.120;2024-02-04T06:23:22;98575.81;;;6.00;76.03
85319;BME280;75722;49.004;12.120;2024-02-04T06:25:47;98578.31;;;6.01;75.91
85319;BME280;75722;49.004;12.120;2024-02-04T06:28:13;98575.81;;;6.00;75.99
85319;BME280;75722;49.004;12.120;2024-02-04T06:30:38;98577.94;;;5.96;76.08
85319;BME280;75722;49.004;12.120;2024-02-04T06:33:04;98574.38;;;5.96;76.03
85319;BME280;75722;49.004;12.120;2024-02-04T06:35:29;98581.47;;;5.97;76.19
85319;BME280;75722;49.004;12.120;2024-02-04T06:37:54;98583.59;;;5.93;76.26
85319;BME280;75722;49.004;12.120;2024-02-04T06:40:22;98583.59;;;5.93;76.45
85319;BME280;75722;49.004;12.120;2024-02-04T06:42:47;98582.31;;;5.97;76.60
85319;BME280;75722;49.004;12.120;2024-02-04T06:45:13;98573.31;;;5.88;76.54
85319;BME280;75722;49.004;12.120;2024-02-04T06:47:38;98576.25;;;5.95;76.51
85319;BME280;75722;49.004;12.120;2024-02-04T06:50:04;98575.28;;;5.86;76.67
85319;BME280;75722;49.004;12.120;2024-02-04T06:52:31;98567.94;;;5.88;76.77
85319;BME280;75722;49.004;12.120;2024-02-04T06:54:56;98566.22;;;5.87;76.72
85319;BME280;75722;49.004;12.120;2024-02-04T06:57:22;98561.66;;;5.98;76.74
85319;BME280;75722;49.004;12.120;2024-02-04T06:59:47;98572.94;;;6.11;77.14
85319;BME280;75722;49.004;12.120;2024-02-04T07:02:12;98580.66;;;6.24;76.36
85319;BME280;75722;49.004;12.120;2024-02-04T07:04:38;98575.56;;;6.31;75.85
85319;BME280;75722;49.004;12.120;2024-02-04T07:07:03;98582.44;;;6.44;74.97
85319;BME280;75722;49.004;12.120;2024-02-04T07:09:28;98576.66;;;6.38;74.81
85319;BME280;75722;49.004;12.120;2024-02-04T07:11:54;98579.94;;;6.32;74.50
85319;BME280;75722;49.004;12.120;2024-02-04T07:14:19;98576.97;;;6.35;74.50
85319;BME280;75722;49.004;12.120;2024-02-04T07:16:44;98573.25;;;6.36;74.50
85319;BME280;75722;49.004;12.120;2024-02-04T07:19:10;98567.97;;;6.45;74.15
85319;BME280;75722;49.004;12.120;2024-02-04T07:21:35;98567.22;;;6.52;73.78
85319;BME280;75722;49.004;12.120;2024-02-04T07:24:01;98572.13;;;6.57;73.27
85319;BME280;75722;49.004;12.120;2024-02-04T07:26:26;98577.69;;;6.56;73.42
85319;BME280;75722;49.004;12.120;2024-02-04T07:28:52;98576.25;;;6.61;73.50
85319;BME280;75722;49.004;12.120;2024-02-04T07:31:18;98585.09;;;6.72;72.70
85319;BME280;75722;49.004;12.120;2024-02-04T07:33:44;98569.66;;;6.74;72.53
85319;BME280;75722;49.004;12.120;2024-02-04T07:36:10;98549.78;;;6.75;72.72
85319;BME280;75722;49.004;12.120;2024-02-04T07:38:36;98554.94;;;6.86;72.04
85319;BME280;75722;49.004;12.120;2024-02-04T07:41:01;98554.56;;;6.99;71.94
85319;BME280;75722;49.004;12.120;2024-02-04T07:43:27;98559.56;;;7.12;71.26
85319;BME280;75722;49.004;12.120;2024-02-04T07:45:53;98554.94;;;7.23;70.83
85319;BME280;75722;49.004;12.120;2024-02-04T07:48:18;98557.47;;;7.42;70.37
85319;BME280;75722;49.004;12.120;2024-02-04T07:50:45;98567.59;;;7.49;70.20
85319;BME280;75722;49.004;12.120;2024-02-04T07:53:10;98567.59;;;7.49;70.21
85319;BME280;75722;49.004;12.120;2024-02-04T07:55:36;98561.13;;;7.41;70.32
85319;BME280;75722;49.004;12.120;2024-02-04T07:58:01;98556.63;;;7.24;70.76
85319;BME280;75722;49.004;12.120;2024-02-04T08:00:26;98552.88;;;7.16;70.81
85319;BME280;75722;49.004;12.120;2024-02-04T08:02:52;98561.03;;;7.06;71.48
85319;BME280;75722;49.004;12.120;2024-02-04T08:05:17;98567.31;;;7.34;71.21
85319;BME280;75722;49.004;12.120;2024-02-04T08:07:42;98553.00;;;7.33;70.71
85319;BME280;75722;49.004;12.120;2024-02-04T08:10:08;98556.09;;;7.38;71.28
85319;BME280;75722;49.004;12.120;2024-02-04T08:12:34;98550.34;;;7.41;70.73
85319;BME280;75722;49.004;12.120;2024-02-04T08:14:59;98547.78;;;7.58;70.50
85319;BME280;75722;49.004;12.120;2024-02-04T08:17:24;98542.41;;;7.93;69.49
85319;BME280;75722;49.004;12.120;2024-02-04T08:19:50;98531.41;;;8.13;69.21
85319;BME280;75722;49.004;12.120;2024-02-04T08:22:16;98525.28;;;8.45;67.83
85319;BME280;75722;49.004;12.120;2024-02-04T08:24:43;98531.69;;;8.53;67.77
85319;BME280;75722;49.004;12.120;2024-02-04T08:27:08;98529.09;;;8.94;66.25
85319;BME280;75722;49.004;12.120;2024-02-04T08:29:33;98517.97;;;8.97;65.32
85319;BME280;75722;49.004;12.120;2024-02-04T08:31:59;98527.72;;;8.82;66.00
85319;BME280;75722;49.004;12.120;2024-02-04T08:34:24;98528.81;;;8.46;66.83
85319;BME280;75722;49.004;12.120;2024-02-04T08:36:50;98531.41;;;8.56;66.53
85319;BME280;75722;49.004;12.120;2024-02-04T08:39:16;98518.50;;;8.41;66.82
85319;BME280;75722;49.004;12.120;2024-02-04T08:41:41;98530.16;;;8.42;66.96
85319;BME280;75722;49.004;12.120;2024-02-04T08:44:07;98523.06;;;8.41;66.03
85319;BME280;75722;49.004;12.120;2024-02-04T08:46:32;98525.22;;;9.47;64.31
85319;BME280;75722;49.004;12.120;2024-02-04T08:48:58;98524.38;;;11.45;58.75
85319;BME280;75722;49.004;12.120;2024-02-04T08:51:23;98519.94;;;11.98;56.48
85319;BME280;75722;49.004;12.120;2024-02-04T08:53:48;98541.59;;;11.14;58.17
85319;BME280;75722;49.004;12.120;2024-02-04T08:56:13;98530.13;;;11.96;57.76
85319;BME280;75722;49.004;12.120;2024-02-04T08:58:39;98537.31;;;11.73;56.88
85319;BME280;75722;49.004;12.120;2024-02-04T09:01:05;98536.22;;;11.06;58.86
85319;BME280;75722;49.004;12.120;2024-02-04T09:03:31;98533.91;;;9.91;61.56
85319;BME280;75722;49.004;12.120;2024-02-04T09:05:57;98549.03;;;9.43;63.02
85319;BME280;75722;49.004;12.120;2024-02-04T09:08:22;98543.31;;;9.30;63.62
85319;BME280;75722;49.004;12.120;2024-02-04T09:10:47;98533.19;;;9.07;64.38
85319;BME280;75722;49.004;12.120;2024-02-04T09:13:13;98536.38;;;9.10;64.29
85319;BME280;75722;49.004;12.120;2024-02-04T09:15:38;98533.50;;;9.20;63.64
85319;BME280;75722;49.004;12.120;2024-02-04T09:18:04;98542.63;;;9.03;63.87
85319;BME280;75722;49.004;12.120;2024-02-04T09:20:29;98540.59;;;9.13;64.22
85319;BME280;75722;49.004;12.120;2024-02-04T09:22:55;98542.28;;;9.22;64.72
85319;BME280;75722;49.004;12.120;2024-02-04T09:25:20;98552.22;;;8.89;64.67
85319;BME280;75722;49.004;12.120;2024-02-04T09:27:45;98557.97;;;8.85;64.88
85319;BME280;75722;49.004;12.120;2024-02-04T09:30:11;98563.00;;;8.72;65.79
85319;BME280;75722;49.004;12.120;2024-02-04T09:32:37;98555.06;;;8.70;65.89
85319;BME280;75722;49.004;12.120;2024-02-04T09:35:03;98555.38;;;8.59;65.99
85319;BME280;75722;49.004;12.120;2024-02-04T09:37:28;98560.47;;;8.70;65.42
85319;BME280;75722;49.004;12.120;2024-02-04T09:39:53;98549.63;;;8.54;66.11
85319;BME280;75722;49.004;12.120;2024-02-04T09:42:20;98550.84;;;8.68;65.52
85319;BME280;75722;49.004;12.120;2024-02-04T09:44:49;98551.69;;;8.68;65.20
85319;BME280;75722;49.004;12.120;2024-02-04T09:47:15;98553.06;;;8.97;64.33
85319;BME280;75722;49.004;12.120;2024-02-04T09:49:42;98545.44;;;8.76;65.20
85319;BME280;75722;49.004;12.120;2024-02-04T09:52:08;98549.00;;;8.85;64.89
85319;BME280;75722;49.004;12.120;2024-02-04T09:54:45;98535.19;;;9.05;63.82
85319;BME280;75722;49.004;12.120;2024-02-04T09:57:10;98534.19;;;9.22;63.54
85319;BME280;75722;49.004;12.120;2024-02-04T09:59:36;98540.41;;;9.15;63.60
85319;BME280;75722;49.004;12.120;2024-02-04T10:02:03;98527.78;;;9.07;63.79
85319;BME280;75722;49.004;12.120;2024-02-04T10:04:28;98529.09;;;9.28;63.08
85319;BME280;75722;49.004;12.120;2024-02-04T10:06:54;98539.72;;;9.46;62.75
85319;BME280;75722;49.004;12.120;2024-02-04T10:09:19;98546.66;;;9.32;63.27
85319;BME280;75722;49.004;12.120;2024-02-04T10:11:45;98547.19;;;9.19;63.59
85319;BME280;75722;49.004;12.120;2024-02-04T10:14:10;98550.56;;;9.13;64.07
85319;BME280;75722;49.004;12.120;2024-02-04T10:16:37;98538.38;;;9.00;64.03
85319;BME280;75722;49.004;12.120;2024-02-04T10:19:03;98540.78;;;9.28;63.39
85319;BME280;75722;49.004;12.120;2024-02-04T10:21:28;98526.72;;;9.49;62.46
85319;BME280;75722;49.004;12.120;2024-02-04T10:23:54;98519.94;;;9.62;62.48
85319;BME280;75722;49.004;12.120;2024-02-04T10:26:20;98506.38;;;9.87;61.48
85319;BME280;75722;49.004;12.120;2024-02-04T10:28:46;98511.16;;;10.80;59.47
85319;BME280;75722;49.004;12.120;2024-02-04T10:31:13;98495.91;;;11.26;57.63
85319;BME280;75722;49.004;12.120;2024-02-04T10:33:38;98498.91;;;12.00;56.48
85319;BME280;75722;49.004;12.120;2024-02-04T10:36:04;98496.06;;;12.23;55.69
85319;BME280;75722;49.004;12.120;2024-02-04T10:38:30;98494.50;;;11.84;56.45
85319;BME280;75722;49.004;12.120;2024-02-04T10:40:59;98488.56;;;11.50;57.07
85319;BME280;75722;49.004;12.120;2024-02-04T10:43:29;98496.69;;;11.11;58.36
85319;BME280;75722;49.004;12.120;2024-02-04T10:45:56;98489.03;;;10.76;58.89
85319;BME280;75722;49.004;12.120;2024-02-04T10:48:25;98497.38;;;10.67;59.66
85319;BME280;75722;49.004;12.120;2024-02-04T10:50:54;98501.31;;;10.24;60.35
85319;BME280;75722;49.004;12.120;2024-02-04T10:53:22;98509.59;;;9.82;61.45
85319;BME280;75722;49.004;12.120;2024-02-04T10:55:49;98503.06;;;9.52;62.11
85319;BME280;75722;49.004;12.120;2024-02-04T10:58:15;98512.91;;;9.28;62.87
85319;BME280;75722;49.004;12.120;2024-02-04T11:00:43;98513.22;;;9.24;63.50
85319;BME280;75722;49.004;12.120;2024-02-04T11:03:08;98512.38;;;9.16;63.53
85319;BME280;75722;49.004;12.120;2024-02-04T11:05:34;98509.84;;;8.89;64.02
85319;BME280;75722;49.004;12.120;2024-02-04T11:08:02;98487.06;;;8.92;63.97
85319;BME280;75722;49.004;12.120;2024-02-04T11:10:29;98486.41;;;8.90;64.39
85319;BME280;75722;49.004;12.120;2024-02-04T11:12:57;98490.44;;;9.10;63.79
85319;BME280;75722;49.004;12.120;2024-02-04T11:15:29;98476.44;;;9.15;63.00
85319;BME280;75722;49.004;12.120;2024-02-04T11:26:20;98458.16;;;9.34;62.72
85319;BME280;75722;49.004;12.120;2024-02-04T11:28:47;98458.69;;;9.21;62.84
85319;BME280;75722;49.004;12.120;2024-02-04T11:31:19;98455.31;;;9.10;63.47
85319;BME280;75722;49.004;12.120;2024-02-04T11:33:45;98468.66;;;9.04;63.51
85319;BME280;75722;49.004;12.120;2024-02-04T11:36:14;98465.47;;;8.92;63.67
85319;BME280;75722;49.004;12.120;2024-02-04T11:38:42;98466.63;;;9.06;64.31
85319;BME280;75722;49.004;12.120;2024-02-04T11:41:07;98469.84;;;8.93;64.40
85319;BME280;75722;49.004;12.120;2024-02-04T11:43:34;98466.28;;;8.76;64.84
85319;BME280;75722;49.004;12.120;2024-02-04T11:46:03;98457.53;;;8.65;65.07
85319;BME280;75722;49.004;12.120;2024-02-04T11:48:29;98457.00;;;8.62;65.03
85319;BME280;75722;49.004;12.120;2024-02-04T11:50:57;98453.81;;;8.83;64.99
85319;BME280;75722;49.004;12.120;2024-02-04T11:53:23;98451.09;;;8.75;64.96
85319;BME280;75722;49.004;12.120;2024-02-04T11:55:51;98443.16;;;8.73;65.44
85319;BME280;75722;49.004;12.120;2024-02-04T11:58:18;98451.09;;;8.75;65.21
85319;BME280;75722;49.004;12.120;2024-02-04T12:00:45;98443.50;;;8.70;65.29
85319;BME280;75722;49.004;12.120;2024-02-04T12:03:11;98430.84;;;8.62;65.65
85319;BME280;75722;49.004;12.120;2024-02-04T12:05:37;98429.50;;;8.75;65.15
85319;BME280;75722;49.004;12.120;2024-02-04T12:08:07;98425.13;;;8.73;65.15
85319;BME280;75722;49.004;12.120;2024-02-04T12:10:36;98426.63;;;8.84;64.90
85319;BME280;75722;49.004;12.120;2024-02-04T12:13:02;98432.19;;;8.75;65.27
85319;BME280;75722;49.004;12.120;2024-02-04T12:15:29;98422.59;;;8.72;65.18
85319;BME280;75722;49.004;12.120;2024-02-04T12:17:55;98420.06;;;8.70;65.63
85319;BME280;75722;49.004;12.120;2024-02-04T12:20:21;98405.03;;;8.76;66.37
85319;BME280;75722;49.004;12.120;2024-02-04T12:22:46;98409.09;;;8.72;65.27
85319;BME280;75722;49.004;12.120;2024-02-04T12:25:14;98404.53;;;8.81;65.06
85319;BME280;75722;49.004;12.120;2024-02-04T12:27:39;98386.28;;;8.83;65.17
85319;BME280;75722;49.004;12.120;2024-02-04T12:30:05;98393.41;;;8.84;65.31
85319;BME280;75722;49.004;12.120;2024-02-04T12:32:32;98387.00;;;8.68;65.51
85319;BME280;75722;49.004;12.120;2024-02-04T12:34:57;98389.88;;;8.67;65.02
85319;BME280;75722;49.004;12.120;2024-02-04T12:37:22;98376.47;;;8.48;64.99
85319;BME280;75722;49.004;12.120;2024-02-04T12:39:48;98381.56;;;8.43;65.40
85319;BME280;75722;49.004;12.120;2024-02-04T12:42:16;98378.00;;;8.34;65.90
85319;BME280;75722;49.004;12.120;2024-02-04T12:44:49;98369.25;;;8.32;65.34
85319;BME280;75722;49.004;12.120;2024-02-04T12:47:19;98373.44;;;8.27;65.92
85319;BME280;75722;49.004;12.120;2024-02-04T12:49:45;98376.16;;;8.35;65.26
85319;BME280;75722;49.004;12.120;2024-02-04T12:52:10;98382.38;;;8.27;65.48
85319;BME280;75722;49.004;12.120;2024-02-04T12:54:45;98373.63;;;8.17;66.02
85319;BME280;75722;49.004;12.120;2024-02-04T12:57:10;98364.66;;;8.16;65.65
85319;BME280;75722;49.004;12.120;2024-02-04T12:59:46;98374.44;;;8.26;66.74
85319;BME280;75722;49.004;12.120;2024-02-04T13:02:13;98363.63;;;8.09;65.87
85319;BME280;75722;49.004;12.120;2024-02-04T13:04:42;98373.09;;;8.13;65.95
85319;BME280;75722;49.004;12.120;2024-02-04T13:07:14;98371.91;;;8.16;66.08